createdAt,value
2022-11-01T01:12:13.647Z,99
2022-11-01T02:13:59.204Z,99
2022-11-01T02:32:20.454Z,99
2022-11-01T04:31:46.057Z,99
2022-11-01T08:48:36.454Z,99
2022-11-01T09:31:01.233Z,99
2022-11-01T10:14:06.576Z,99
2022-11-01T10:19:38.045Z,99
2022-11-01T10:30:51.722Z,99
2022-11-01T13:29:40.796Z,99
2022-11-01T14:06:47.652Z,99
2022-11-01T14:32:29.381Z,99
2022-11-01T14:45:58.412Z,99
2022-11-01T14:49:36.824Z,99
2022-11-01T14:56:56.166Z,99
2022-11-01T15:00:10.831Z,86
2022-11-01T15:08:45.904Z,90
2022-11-01T15:18:45.304Z,91
2022-11-01T15:28:51.404Z,91
2022-11-01T15:38:51.742Z,93
2022-11-01T15:48:47.063Z,93
2022-11-01T15:58:46.730Z,95
2022-11-01T16:08:47.766Z,96
2022-11-01T16:18:49.537Z,98
2022-11-01T16:38:50.155Z,99
2022-11-01T16:48:49.931Z,99
2022-11-01T16:58:50.186Z,99
2022-11-01T17:08:49.666Z,99
2022-11-01T17:18:54.761Z,99
2022-11-01T17:28:52.413Z,99
2022-11-01T17:38:50.228Z,99
2022-11-01T17:48:50.100Z,99
2022-11-01T17:58:52.001Z,99
2022-11-01T18:08:50.035Z,99
2022-11-01T18:18:51.914Z,99
2022-11-01T18:28:50.323Z,99
2022-11-01T18:38:51.866Z,99
2022-11-01T18:48:50.303Z,99
2022-11-01T18:58:50.356Z,99
2022-11-01T19:08:50.238Z,99
2022-11-01T19:13:56.990Z,99
2022-11-01T19:18:50.184Z,99
2022-11-01T19:28:55.912Z,99
2022-11-01T19:38:50.247Z,99
2022-11-01T19:48:50.218Z,99
2022-11-01T19:58:50.245Z,99
2022-11-01T20:08:50.280Z,99
2022-11-01T20:18:50.320Z,99
2022-11-01T20:28:50.362Z,99
2022-11-01T20:38:50.334Z,99
2022-11-01T20:48:50.332Z,99
2022-11-01T20:58:53.562Z,99
2022-11-01T21:08:50.405Z,99
2022-11-01T21:18:50.396Z,99
2022-11-01T21:28:50.383Z,99
2022-11-01T21:38:51.621Z,99
2022-11-01T21:48:51.160Z,99
2022-11-01T21:58:51.186Z,99
2022-11-01T22:08:51.274Z,99
2022-11-01T22:18:51.189Z,99
2022-11-01T22:28:51.495Z,99
2022-11-01T22:38:56.133Z,99
2022-11-01T22:48:51.354Z,99
2022-11-01T22:58:51.338Z,99
2022-11-01T23:08:51.495Z,99
2022-11-01T23:18:56.351Z,99
2022-11-01T23:28:11.188Z,99
2022-11-01T23:28:51.485Z,99
2022-11-01T23:38:51.558Z,99
2022-11-01T23:48:53.997Z,99
2022-11-01T23:58:52.817Z,99
